createdAt,value
2023-02-14T00:00:22.782Z,12.05
2023-02-14T00:02:52.470Z,10.07
2023-02-14T00:05:22.066Z,9.93
2023-02-14T00:07:54.264Z,11.40
2023-02-14T00:10:23.829Z,8.60
2023-02-14T00:12:53.442Z,8.57
2023-02-14T00:15:22.980Z,11.00
2023-02-14T00:17:53.079Z,10.57
2023-02-14T00:20:22.944Z,9.48
2023-02-14T00:22:55.202Z,9.60
2023-02-14T00:25:24.959Z,9.20
2023-02-14T00:27:55.690Z,9.20
2023-02-14T00:30:25.489Z,8.45
2023-02-14T00:32:55.146Z,10.52
2023-02-14T00:35:24.717Z,9.77
2023-02-14T00:37:56.933Z,11.52
2023-02-14T00:40:26.731Z,9.98
2023-02-14T00:42:56.333Z,10.70
2023-02-14T00:45:25.951Z,11.40
2023-02-14T00:47:55.580Z,10.93
2023-02-14T00:50:25.168Z,10.40
2023-02-14T00:52:57.353Z,11.65
2023-02-14T00:55:27.082Z,11.52
2023-02-14T00:57:56.975Z,9.10
2023-02-14T01:00:26.802Z,10.10
2023-02-14T01:02:58.405Z,15.35
2023-02-14T01:05:28.020Z,10.55
2023-02-14T01:08:00.311Z,9.75
2023-02-14T01:10:30.063Z,13.43
2023-02-14T01:13:01.414Z,11.60
2023-02-14T01:15:31.139Z,10.40
2023-02-14T01:18:24.167Z,11.88
2023-02-14T01:20:53.739Z,11.27
2023-02-14T01:23:25.898Z,13.30
2023-02-14T01:25:55.447Z,13.27
2023-02-14T01:28:25.049Z,9.63
2023-02-14T01:30:54.656Z,11.93
2023-02-14T01:33:24.400Z,12.32
2023-02-14T01:35:53.921Z,11.38
2023-02-14T01:38:26.112Z,11.30
2023-02-14T01:40:55.744Z,11.95
2023-02-14T01:43:27.676Z,10.43
2023-02-14T01:45:57.331Z,14.93
2023-02-14T01:48:27.713Z,12.20
2023-02-14T01:50:57.843Z,12.98
2023-02-14T01:53:31.863Z,11.43
2023-02-14T01:56:08.762Z,13.57
2023-02-14T01:58:41.448Z,13.43
2023-02-14T02:01:11.670Z,10.90
2023-02-14T02:03:44.160Z,12.77
2023-02-14T02:06:18.234Z,11.43
2023-02-14T02:08:55.098Z,12.05
2023-02-14T02:11:24.655Z,11.18
2023-02-14T02:13:54.260Z,11.10
2023-02-14T02:16:33.786Z,10.40
2023-02-14T02:19:33.479Z,11.70
2023-02-14T02:22:28.424Z,13.05
2023-02-14T02:25:03.366Z,12.05
2023-02-14T02:28:06.140Z,12.27
2023-02-14T02:31:10.754Z,12.00
2023-02-14T02:34:06.658Z,11.60
2023-02-14T02:37:11.073Z,14.02
2023-02-14T02:39:52.392Z,14.30
2023-02-14T02:42:28.190Z,13.15
2023-02-14T02:45:06.292Z,13.60
2023-02-14T02:47:40.586Z,12.98
2023-02-14T02:50:34.161Z,12.43
2023-02-14T02:53:10.719Z,16.08
2023-02-14T02:55:58.456Z,13.23
2023-02-14T02:58:31.048Z,13.88
2023-02-14T03:01:02.785Z,13.85
2023-02-14T03:03:45.699Z,14.27
2023-02-14T03:06:15.310Z,15.18
2023-02-14T03:08:47.511Z,12.73
2023-02-14T03:11:17.682Z,16.98
2023-02-14T03:14:03.559Z,16.35
2023-02-14T03:16:46.071Z,17.10
2023-02-14T03:19:34.578Z,15.75
2023-02-14T03:22:10.214Z,16.20
2023-02-14T03:24:47.714Z,16.25
2023-02-14T03:27:22.892Z,15.48
2023-02-14T03:29:59.125Z,16.38
2023-02-14T03:32:35.763Z,16.85
2023-02-14T03:35:12.737Z,17.90
2023-02-14T03:37:46.788Z,14.27
2023-02-14T03:40:22.793Z,17.75
2023-02-14T03:42:55.332Z,16.17
2023-02-14T03:45:28.340Z,16.10
2023-02-14T03:47:59.447Z,18.70
2023-02-14T03:50:31.240Z,16.95
2023-02-14T03:53:01.681Z,19.15
2023-02-14T03:55:37.720Z,19.40
2023-02-14T03:58:12.236Z,20.00
2023-02-14T04:00:43.776Z,17.52
2023-02-14T04:03:15.372Z,20.83
2023-02-14T04:05:46.792Z,18.75
2023-02-14T04:08:23.602Z,21.88
2023-02-14T04:10:56.830Z,23.55
2023-02-14T04:13:26.560Z,22.58
2023-02-14T04:15:56.217Z,20.23
2023-02-14T04:18:38.070Z,21.13
2023-02-14T04:21:08.207Z,22.20
2023-02-14T04:23:37.799Z,18.85
2023-02-14T04:26:10.363Z,23.92
2023-02-14T04:28:39.964Z,22.13
2023-02-14T04:31:11.148Z,21.40
2023-02-14T04:33:41.721Z,19.92
2023-02-14T04:36:11.508Z,23.95
2023-02-14T04:38:41.052Z,22.02
2023-02-14T04:41:13.671Z,23.48
2023-02-14T04:43:43.277Z,26.25
2023-02-14T04:46:12.989Z,20.90
2023-02-14T04:48:42.552Z,20.42
2023-02-14T04:51:12.143Z,22.38
2023-02-14T04:53:41.737Z,25.48
2023-02-14T04:56:14.062Z,27.17
2023-02-14T04:58:43.642Z,24.08
2023-02-14T05:01:13.270Z,27.48
2023-02-14T05:03:43.401Z,23.33
2023-02-14T05:06:13.073Z,25.15
2023-02-14T05:08:42.659Z,27.00
2023-02-14T05:11:14.919Z,30.60
2023-02-14T05:13:44.520Z,25.73
2023-02-14T05:16:14.127Z,34.80
2023-02-14T05:18:43.773Z,31.23
2023-02-14T05:21:13.437Z,25.73
2023-02-14T05:23:43.060Z,27.45
2023-02-14T05:26:15.266Z,31.00
2023-02-14T05:28:44.889Z,30.05
2023-02-14T05:31:14.551Z,31.70
2023-02-14T05:33:44.193Z,33.78
2023-02-14T05:36:13.999Z,33.10
2023-02-14T05:38:43.620Z,37.00
2023-02-14T05:41:15.885Z,37.83
2023-02-14T05:43:45.464Z,33.03
2023-02-14T05:46:15.093Z,31.00
2023-02-14T05:48:45.860Z,34.10
2023-02-14T05:51:15.534Z,37.38
2023-02-14T05:53:45.156Z,31.40
2023-02-14T05:56:17.369Z,34.08
2023-02-14T05:58:46.997Z,35.95
2023-02-14T06:01:16.612Z,34.63
2023-02-14T06:03:46.663Z,34.50
2023-02-14T06:06:16.259Z,35.60
2023-02-14T06:08:45.856Z,38.58
2023-02-14T06:11:18.023Z,37.85
2023-02-14T06:13:47.636Z,37.53
2023-02-14T06:16:17.361Z,35.00
2023-02-14T06:18:46.963Z,38.85
2023-02-14T06:21:16.528Z,39.70
2023-02-14T06:23:46.093Z,36.58
2023-02-14T06:26:18.298Z,38.50
2023-02-14T06:28:47.919Z,40.33
2023-02-14T06:31:20.579Z,37.03
2023-02-14T06:33:50.210Z,35.85
2023-02-14T06:36:19.815Z,41.95
2023-02-14T06:38:50.512Z,44.33
2023-02-14T06:41:22.684Z,37.58
2023-02-14T06:43:52.290Z,41.70
2023-02-14T06:46:22.228Z,40.80
2023-02-14T06:48:52.028Z,39.15
2023-02-14T06:51:21.672Z,35.03
2023-02-14T06:53:51.349Z,37.60
2023-02-14T06:56:23.809Z,42.83
2023-02-14T06:58:53.411Z,39.28
2023-02-14T07:01:23.440Z,37.97
2023-02-14T07:03:53.507Z,35.55
2023-02-14T07:06:23.290Z,34.47
2023-02-14T07:08:52.947Z,31.90
2023-02-14T07:11:25.899Z,36.83
2023-02-14T07:13:55.603Z,32.10
2023-02-14T07:16:26.027Z,31.90
2023-02-14T07:18:55.949Z,32.80
2023-02-14T07:21:25.812Z,33.15
2023-02-14T07:23:55.419Z,28.90
2023-02-14T07:26:27.691Z,24.42
2023-02-14T07:28:57.274Z,27.58
2023-02-14T07:31:27.245Z,26.23
2023-02-14T07:33:56.952Z,24.50
2023-02-14T07:36:26.657Z,27.40
2023-02-14T07:38:56.249Z,24.88
2023-02-14T07:41:28.429Z,23.77
2023-02-14T07:43:58.046Z,25.40
2023-02-14T07:46:27.690Z,24.38
2023-02-14T07:48:57.322Z,24.40
2023-02-14T07:51:26.973Z,22.35
2023-02-14T07:53:56.648Z,22.23
2023-02-14T07:56:29.151Z,20.30
2023-02-14T07:58:58.762Z,23.38
2023-02-14T08:01:28.501Z,20.73
2023-02-14T08:03:58.137Z,22.55
2023-02-14T08:06:28.697Z,19.85
2023-02-14T08:08:58.576Z,22.08
2023-02-14T08:11:43.235Z,20.27
2023-02-14T08:14:12.810Z,21.58
2023-02-14T08:16:42.773Z,19.67
2023-02-14T08:19:12.327Z,19.67
2023-02-14T08:21:42.482Z,18.67
2023-02-14T08:24:12.095Z,20.95
2023-02-14T08:26:44.268Z,20.40
2023-02-14T08:29:16.586Z,20.67
2023-02-14T08:31:47.528Z,19.00
2023-02-14T08:34:17.740Z,20.67
2023-02-14T08:36:47.590Z,19.45
2023-02-14T08:39:17.575Z,18.52
2023-02-14T08:41:49.714Z,20.08
2023-02-14T08:44:19.285Z,19.83
2023-02-14T08:46:48.940Z,17.65
2023-02-14T08:49:18.671Z,19.08
2023-02-14T08:51:48.323Z,21.27
2023-02-14T08:54:17.912Z,19.08
2023-02-14T08:56:50.171Z,18.17
2023-02-14T08:59:19.785Z,17.52
2023-02-14T09:01:49.342Z,19.02
2023-02-14T09:04:19.004Z,17.33
2023-02-14T09:06:48.598Z,18.45
2023-02-14T09:09:19.510Z,18.10
2023-02-14T09:11:51.728Z,18.13
2023-02-14T09:14:21.841Z,17.75
2023-02-14T09:16:51.521Z,16.42
2023-02-14T09:19:21.174Z,17.75
2023-02-14T09:21:50.791Z,17.77
2023-02-14T09:24:20.349Z,15.48
2023-02-14T09:26:52.520Z,17.33
2023-02-14T09:29:22.110Z,17.92
2023-02-14T09:31:51.799Z,17.83
2023-02-14T09:34:33.980Z,18.70
2023-02-14T09:37:06.258Z,14.88
2023-02-14T09:39:36.100Z,15.57
2023-02-14T09:42:35.363Z,16.77
2023-02-14T09:45:07.907Z,15.88
2023-02-14T09:47:40.223Z,16.60
2023-02-14T09:50:18.157Z,15.48
2023-02-14T09:52:50.449Z,16.27
2023-02-14T09:55:21.022Z,15.25
2023-02-14T09:58:04.135Z,15.07
2023-02-14T10:00:39.015Z,15.27
2023-02-14T10:03:24.492Z,14.68
2023-02-14T10:06:00.276Z,16.58
2023-02-14T10:08:44.461Z,17.70
2023-02-14T10:13:50.899Z,15.52
2023-02-14T10:16:27.204Z,16.02
2023-02-14T10:19:00.091Z,15.55
2023-02-14T10:21:32.186Z,16.88
2023-02-14T10:24:08.430Z,14.93
2023-02-14T10:26:41.290Z,14.93
2023-02-14T10:29:16.975Z,16.75
2023-02-14T10:31:55.869Z,19.45
2023-02-14T10:34:31.175Z,17.58
2023-02-14T10:37:17.525Z,16.83
2023-02-14T10:40:05.822Z,17.38
2023-02-14T10:42:41.400Z,15.93
2023-02-14T10:45:21.283Z,18.23
2023-02-14T10:47:57.011Z,19.67
2023-02-14T10:50:34.429Z,17.98
2023-02-14T10:53:12.905Z,18.65
2023-02-14T10:55:49.216Z,18.20
2023-02-14T10:58:21.220Z,18.23
2023-02-14T11:01:04.779Z,19.08
2023-02-14T11:03:36.266Z,20.52
2023-02-14T11:06:06.132Z,19.60
2023-02-14T11:08:37.982Z,18.35
2023-02-14T11:11:16.732Z,22.98
2023-02-14T11:13:47.076Z,21.25
2023-02-14T11:16:26.560Z,19.42
2023-02-14T11:19:11.389Z,21.75
2023-02-14T11:21:41.823Z,20.02
2023-02-14T11:24:20.529Z,22.63
2023-02-14T11:26:53.057Z,20.20
2023-02-14T11:29:31.265Z,24.08
2023-02-14T11:32:10.472Z,20.30
2023-02-14T11:34:41.898Z,22.63
2023-02-14T11:37:21.666Z,19.45
2023-02-14T11:39:52.189Z,21.92
2023-02-14T11:42:41.699Z,23.50
2023-02-14T11:45:29.528Z,19.65
2023-02-14T11:48:34.917Z,21.52
2023-02-14T11:51:09.009Z,22.42
2023-02-14T11:53:46.579Z,21.85
2023-02-14T11:56:17.600Z,19.13
2023-02-14T11:58:51.982Z,20.33
2023-02-14T12:01:26.560Z,20.75
2023-02-14T12:04:01.758Z,23.52
2023-02-14T12:06:32.935Z,21.02
2023-02-14T12:09:14.612Z,21.23
2023-02-14T12:11:44.263Z,20.23
2023-02-14T12:14:24.595Z,18.20
2023-02-14T12:17:00.363Z,19.55
2023-02-14T12:19:38.322Z,20.77
2023-02-14T12:22:09.560Z,19.05
2023-02-14T12:24:41.503Z,20.35
2023-02-14T12:27:22.705Z,18.88
2023-02-14T12:29:55.272Z,18.63
2023-02-14T12:32:27.565Z,26.13
2023-02-14T12:35:05.979Z,19.63
2023-02-14T12:37:45.507Z,18.20
2023-02-14T12:40:24.422Z,18.70
2023-02-14T12:43:06.522Z,24.15
2023-02-14T12:45:54.475Z,19.85
2023-02-14T12:48:31.873Z,20.42
2023-02-14T12:51:09.932Z,18.00
2023-02-14T12:53:50.624Z,19.15
2023-02-14T12:56:27.705Z,21.08
2023-02-14T12:59:05.702Z,20.25
2023-02-14T13:01:58.406Z,19.48
2023-02-14T13:04:56.305Z,22.60
2023-02-14T13:07:40.264Z,18.98
2023-02-14T13:10:19.055Z,19.95
2023-02-14T13:12:55.227Z,19.13
2023-02-14T13:15:33.068Z,20.58
2023-02-14T13:18:08.144Z,18.25
2023-02-14T13:20:44.551Z,20.42
2023-02-14T13:23:20.069Z,19.52
2023-02-14T13:25:53.225Z,17.33
2023-02-14T13:28:23.041Z,18.00
2023-02-14T13:30:52.734Z,21.65
2023-02-14T13:33:28.686Z,18.10
2023-02-14T13:36:00.815Z,18.73
2023-02-14T13:38:34.802Z,17.60
2023-02-14T13:41:05.518Z,16.77
2023-02-14T13:43:52.057Z,18.55
2023-02-14T13:46:23.307Z,16.50
2023-02-14T13:49:01.032Z,20.20
2023-02-14T13:51:49.069Z,18.88
2023-02-14T13:54:32.914Z,18.08
2023-02-14T13:57:03.845Z,21.40
2023-02-14T13:59:34.974Z,37.53
2023-02-14T14:02:37.550Z,25.13
2023-02-14T14:05:48.514Z,20.48
2023-02-14T14:08:55.041Z,21.45
2023-02-14T14:12:03.947Z,21.52
2023-02-14T14:14:40.564Z,21.27
2023-02-14T14:17:28.278Z,20.58
2023-02-14T14:19:58.226Z,20.20
2023-02-14T14:22:28.308Z,19.85
2023-02-14T14:24:59.716Z,22.77
2023-02-14T14:27:33.238Z,18.95
2023-02-14T14:30:07.953Z,18.38
2023-02-14T14:32:39.416Z,22.20
2023-02-14T14:35:20.736Z,19.67
2023-02-14T14:37:54.531Z,18.63
2023-02-14T14:40:28.713Z,19.17
2023-02-14T14:43:02.518Z,19.58
2023-02-14T14:45:35.035Z,18.45
2023-02-14T14:48:11.348Z,18.95
2023-02-14T14:50:41.701Z,15.48
2023-02-14T14:53:18.303Z,19.50
2023-02-14T14:55:52.116Z,15.80
2023-02-14T14:58:37.480Z,21.10
2023-02-14T15:01:13.175Z,22.67
2023-02-14T15:03:43.137Z,20.20
2023-02-14T15:06:20.112Z,20.13
2023-02-14T15:08:51.540Z,17.67
2023-02-14T15:11:36.248Z,17.77
2023-02-14T15:14:06.271Z,20.15
2023-02-14T15:16:44.963Z,18.05
2023-02-14T15:19:21.707Z,18.75
2023-02-14T15:21:52.210Z,17.05
2023-02-14T15:24:22.556Z,19.60
2023-02-14T15:26:53.513Z,17.98
2023-02-14T15:29:25.935Z,16.83
2023-02-14T15:32:02.435Z,16.45
2023-02-14T15:34:36.113Z,16.75
2023-02-14T15:37:06.902Z,17.17
2023-02-14T15:39:39.748Z,19.05
2023-02-14T15:42:22.658Z,18.17
2023-02-14T15:44:52.226Z,17.42
2023-02-14T15:47:24.939Z,16.70
2023-02-14T15:49:54.527Z,17.77
2023-02-14T15:52:24.708Z,18.40
2023-02-14T15:54:54.340Z,17.63
2023-02-14T15:57:26.888Z,17.67
2023-02-14T15:59:56.579Z,18.02
2023-02-14T16:02:37.796Z,16.48
2023-02-14T16:05:09.243Z,20.15
2023-02-14T16:07:38.905Z,20.13
2023-02-14T16:10:24.858Z,21.25
2023-02-14T16:13:02.059Z,15.23
2023-02-14T16:15:33.634Z,20.10
2023-02-14T16:18:08.394Z,15.77
2023-02-14T16:20:45.320Z,16.55
2023-02-14T16:23:23.872Z,22.60
2023-02-14T16:25:54.080Z,24.02
2023-02-14T16:28:24.304Z,18.25
2023-02-14T16:30:57.583Z,17.00
2023-02-14T16:33:33.656Z,21.88
2023-02-14T16:36:09.246Z,19.70
2023-02-14T16:38:45.163Z,25.90
2023-02-14T16:41:19.692Z,19.08
2023-02-14T16:43:50.103Z,20.13
2023-02-14T16:46:21.960Z,23.05
2023-02-14T16:48:54.880Z,23.40
2023-02-14T16:51:26.190Z,17.92
2023-02-14T16:53:56.787Z,22.15
2023-02-14T16:56:29.522Z,19.88
2023-02-14T16:59:00.536Z,18.73
2023-02-14T17:01:32.212Z,21.58
2023-02-14T17:04:04.791Z,18.83
2023-02-14T17:06:36.091Z,15.50
2023-02-14T17:09:08.913Z,18.30
2023-02-14T17:11:41.204Z,19.63
2023-02-14T17:14:11.519Z,19.90
2023-02-14T17:16:41.457Z,18.58
2023-02-14T17:19:13.648Z,17.05
2023-02-14T17:21:43.412Z,20.55
2023-02-14T17:24:12.960Z,19.95
2023-02-14T17:26:42.581Z,21.08
2023-02-14T17:29:13.465Z,23.25
2023-02-14T17:31:44.073Z,21.27
2023-02-14T17:34:16.365Z,17.33
2023-02-14T17:36:46.001Z,20.17
2023-02-14T17:39:15.580Z,20.23
2023-02-14T17:41:45.235Z,20.70
2023-02-14T17:44:14.830Z,22.52
2023-02-14T17:46:44.553Z,21.50
2023-02-14T17:49:16.955Z,27.42
2023-02-14T17:51:46.589Z,23.67
2023-02-14T17:54:16.172Z,24.90
2023-02-14T17:56:45.751Z,26.75
2023-02-14T17:59:15.321Z,28.80
2023-02-14T18:01:45.050Z,26.50
2023-02-14T18:04:17.720Z,24.52
2023-02-14T18:06:47.697Z,27.08
2023-02-14T18:09:17.486Z,24.63
2023-02-14T18:11:47.260Z,20.98
2023-02-14T18:14:16.866Z,23.13
2023-02-14T18:16:48.433Z,25.42
2023-02-14T18:19:20.673Z,25.70
2023-02-14T18:21:50.377Z,23.73
2023-02-14T18:24:20.091Z,22.58
2023-02-14T18:26:49.748Z,23.60
2023-02-14T18:29:19.549Z,27.83
2023-02-14T18:31:49.330Z,25.35
2023-02-14T18:34:21.587Z,25.63
2023-02-14T18:36:51.130Z,23.52
2023-02-14T18:39:21.082Z,25.75
2023-02-14T18:41:50.715Z,26.58
2023-02-14T18:44:21.986Z,27.35
2023-02-14T18:46:51.686Z,20.98
2023-02-14T18:49:24.073Z,22.95
2023-02-14T18:51:54.841Z,20.73
2023-02-14T18:54:24.658Z,20.17
2023-02-14T18:56:54.360Z,23.30
2023-02-14T18:59:24.265Z,25.00
2023-02-14T19:01:54.463Z,23.55
2023-02-14T19:04:26.833Z,24.02
2023-02-14T19:06:56.557Z,25.95
2023-02-14T19:09:28.457Z,29.45
2023-02-14T19:12:00.100Z,23.58
2023-02-14T19:14:29.914Z,24.58
2023-02-14T19:16:59.468Z,25.25
2023-02-14T19:19:31.744Z,26.60
2023-02-14T19:22:01.984Z,25.80
2023-02-14T19:24:32.273Z,27.88
2023-02-14T19:27:02.252Z,28.63
2023-02-14T19:29:32.154Z,26.35
2023-02-14T19:32:02.284Z,27.45
2023-02-14T19:34:36.169Z,28.50
2023-02-14T19:37:06.502Z,27.65
2023-02-14T19:39:36.234Z,26.33
2023-02-14T19:42:06.235Z,26.35
2023-02-14T19:44:36.090Z,27.48
2023-02-14T19:47:22.809Z,26.73
2023-02-14T19:49:59.166Z,24.98
2023-02-14T19:52:29.041Z,27.05
2023-02-14T19:54:58.887Z,26.02
2023-02-14T19:57:28.730Z,28.60
2023-02-14T19:59:58.387Z,28.88
2023-02-14T20:02:28.007Z,28.10
2023-02-14T20:05:04.346Z,24.75
2023-02-14T20:07:33.959Z,26.98
2023-02-14T20:10:04.581Z,24.02
2023-02-14T20:12:34.319Z,27.00
2023-02-14T20:15:05.611Z,27.77
2023-02-14T20:17:35.427Z,24.33
2023-02-14T20:20:08.828Z,28.38
2023-02-14T20:22:38.436Z,26.60
2023-02-14T20:25:09.858Z,25.02
2023-02-14T20:27:39.774Z,31.25
2023-02-14T20:30:11.118Z,27.48
2023-02-14T20:32:40.813Z,29.98
2023-02-14T20:35:13.484Z,26.85
2023-02-14T20:37:43.285Z,25.13
2023-02-14T20:40:14.192Z,27.33
2023-02-14T20:42:43.905Z,26.58
2023-02-14T20:45:15.096Z,26.73
2023-02-14T20:47:44.785Z,27.30
2023-02-14T20:50:17.059Z,28.60
2023-02-14T20:52:46.620Z,32.17
2023-02-14T20:55:16.185Z,28.90
2023-02-14T20:57:45.765Z,28.73
2023-02-14T21:00:16.247Z,28.23
2023-02-14T21:02:46.389Z,29.95
2023-02-14T21:05:19.317Z,32.40
2023-02-14T21:07:48.886Z,28.48
2023-02-14T21:10:18.951Z,33.97
2023-02-14T21:12:49.042Z,30.70
2023-02-14T21:15:18.843Z,31.33
2023-02-14T21:17:48.419Z,30.15
2023-02-14T21:20:22.910Z,30.88
2023-02-14T21:22:52.507Z,30.67
2023-02-14T21:25:24.758Z,29.10
2023-02-14T21:27:55.433Z,32.73
2023-02-14T21:30:25.080Z,33.22
2023-02-14T21:32:54.964Z,26.95
2023-02-14T21:35:27.558Z,32.05
2023-02-14T21:37:57.202Z,31.58
2023-02-14T21:40:26.903Z,34.03
2023-02-14T21:42:56.643Z,31.70
2023-02-14T21:45:39.066Z,32.90
2023-02-14T21:48:21.149Z,32.40
2023-02-14T21:50:53.369Z,31.52
2023-02-14T21:53:23.002Z,32.83
2023-02-14T21:55:53.036Z,33.13
2023-02-14T21:58:22.622Z,30.23
2023-02-14T22:00:52.178Z,30.98
2023-02-14T22:03:22.055Z,29.75
2023-02-14T22:05:54.624Z,33.38
2023-02-14T22:08:24.603Z,31.25
2023-02-14T22:10:54.260Z,33.75
2023-02-14T22:13:23.879Z,33.03
2023-02-14T22:15:53.687Z,31.77
2023-02-14T22:18:23.460Z,32.90
2023-02-14T22:20:55.734Z,33.15
2023-02-14T22:23:27.727Z,33.90
2023-02-14T22:25:58.623Z,33.40
2023-02-14T22:28:28.215Z,31.52
2023-02-14T22:30:57.832Z,33.80
2023-02-14T22:33:27.444Z,31.52
2023-02-14T22:36:00.742Z,32.38
2023-02-14T22:38:31.001Z,32.25
2023-02-14T22:41:00.927Z,37.08
2023-02-14T22:43:30.680Z,32.85
2023-02-14T22:46:04.923Z,31.73
2023-02-14T22:51:22.936Z,30.08
2023-02-14T22:53:53.754Z,32.92
2023-02-14T22:56:25.929Z,31.85
2023-02-14T22:58:56.984Z,34.78
2023-02-14T23:01:27.200Z,34.95
2023-02-14T23:03:57.975Z,32.85
2023-02-14T23:06:32.464Z,32.00
2023-02-14T23:09:02.210Z,30.70
2023-02-14T23:11:33.895Z,34.50
2023-02-14T23:14:15.951Z,34.03
2023-02-14T23:16:58.437Z,33.38
2023-02-14T23:19:43.382Z,33.53
2023-02-14T23:22:17.026Z,34.30
2023-02-14T23:24:48.224Z,34.72
2023-02-14T23:27:18.948Z,35.75
2023-02-14T23:29:48.634Z,30.40
2023-02-14T23:32:18.715Z,31.02
2023-02-14T23:34:48.524Z,33.17
2023-02-14T23:37:20.712Z,34.83
2023-02-14T23:39:50.697Z,33.67
2023-02-14T23:42:20.542Z,32.28
2023-02-14T23:44:50.103Z,33.85
2023-02-14T23:47:20.306Z,35.40
2023-02-14T23:49:50.122Z,34.97
2023-02-14T23:52:22.298Z,36.08
2023-02-14T23:54:51.911Z,37.42
2023-02-14T23:57:21.630Z,36.33
2023-02-14T23:59:51.189Z,37.25
